Main page
METAR-TAF:

METAR-TAF

Airports :

Vilnius Airport

Vilnius, Lithuania

latitude: 54-38N, longitude: 025-06E, elevation: 162 m

Current weather observation

The report was made 24 minutes ago, at 22:20 UTC
Wind 7 kt from the South
Temperature 13°C
Humidity 77%
Pressure 1005 hPa
Visibility 10 km or more
no clouds below 1500 m and no cumulonimbus

METAR: EYVI 302220Z 19007KT CAVOK 13/09 Q1005 NOSIG

Time: 01:44 (22:44 UTC)

Forecast

The report was made 5 hours and 44 minutes ago, at 17:00 UTC
Forecast valid from 30 at 18 UTC to 31 at 18 UTC
Wind 8 kt from the West/Southwest
Visibility: 9000 m

TAF: EYVI 301700Z 3018/3118 24008KT 9000 NSC

Weather observations and forecasts of more than 4000 airports (METAR and TAF reports).

The available stations are represented by yellow and red dots on the map.

Hover mouse over dot to see the name of the station.

Then click to see weather observations and forecasts.

To change the map : click on the green buttons with a black cross to zoom in, on the green button with a dash to zoom out, or on the green arrows for adjacent maps.


METAR-TAF: